createdAt,value
2018-03-22T00:00:01.022Z,8.90
2018-03-22T00:02:29.315Z,9.03
2018-03-22T00:04:58.384Z,11.40
2018-03-22T00:07:26.811Z,11.17
2018-03-22T00:09:55.225Z,10.77
2018-03-22T00:12:24.427Z,8.47
2018-03-22T00:14:52.745Z,10.03
2018-03-22T00:17:21.173Z,9.40
2018-03-22T00:19:49.670Z,10.13
2018-03-22T00:22:29.870Z,10.60
2018-03-22T00:24:58.170Z,11.77
2018-03-22T00:27:26.560Z,9.33
2018-03-22T00:29:54.939Z,11.50
2018-03-22T00:32:25.179Z,11.00
2018-03-22T00:34:56.961Z,10.73
2018-03-22T00:37:25.491Z,12.90
2018-03-22T00:39:54.209Z,10.07
2018-03-22T00:42:22.518Z,10.90
2018-03-22T00:44:50.875Z,9.47
2018-03-22T00:47:19.234Z,11.37
2018-03-22T00:49:49.344Z,12.20
2018-03-22T00:52:19.496Z,10.23
2018-03-22T00:54:47.854Z,8.93
2018-03-22T00:57:16.207Z,13.43
2018-03-22T00:59:44.586Z,12.90
2018-03-22T01:02:15.547Z,8.57
2018-03-22T01:04:44.111Z,10.87
2018-03-22T01:07:14.123Z,12.00
2018-03-22T01:09:44.334Z,7.93
2018-03-22T01:12:14.690Z,11.07
2018-03-22T01:14:47.170Z,10.03
2018-03-22T01:17:15.617Z,8.33
2018-03-22T01:19:43.910Z,9.43
2018-03-22T01:22:12.285Z,10.20
2018-03-22T01:24:41.499Z,10.70
2018-03-22T01:27:12.920Z,9.93
2018-03-22T01:29:42.454Z,8.87
2018-03-22T01:32:11.068Z,9.17
2018-03-22T01:34:39.386Z,9.90
2018-03-22T01:37:07.828Z,12.00
2018-03-22T01:39:38.904Z,15.40
2018-03-22T01:42:07.706Z,11.20
2018-03-22T01:44:36.107Z,7.90
2018-03-22T01:47:04.518Z,10.23
2018-03-22T01:49:32.912Z,10.07
2018-03-22T01:52:04.449Z,9.50
2018-03-22T01:54:33.128Z,12.33
2018-03-22T01:57:01.426Z,7.67
2018-03-22T01:59:29.776Z,10.70
2018-03-22T02:01:58.314Z,11.07
2018-03-22T02:04:29.224Z,14.83
2018-03-22T02:06:57.656Z,9.63
2018-03-22T02:09:26.101Z,14.97
2018-03-22T02:11:54.520Z,12.50
2018-03-22T02:14:23.100Z,9.33
2018-03-22T02:16:59.009Z,12.23
2018-03-22T02:19:27.326Z,18.20
2018-03-22T02:21:55.689Z,12.63
2018-03-22T02:24:24.015Z,11.73
2018-03-22T02:26:52.404Z,10.53
2018-03-22T02:29:20.723Z,12.63
2018-03-22T02:31:49.223Z,13.30
2018-03-22T02:34:17.710Z,14.03
2018-03-22T02:36:47.623Z,13.57
2018-03-22T02:39:16.116Z,11.20
2018-03-22T02:41:46.011Z,13.67
2018-03-22T02:44:14.388Z,17.33
2018-03-22T02:46:46.759Z,19.27
2018-03-22T02:49:15.362Z,20.40
2018-03-22T02:51:43.723Z,17.17
2018-03-22T02:54:16.811Z,18.10
2018-03-22T02:56:45.398Z,15.10
2018-03-22T02:59:14.493Z,16.93
2018-03-22T03:01:44.713Z,18.43
2018-03-22T03:04:13.209Z,16.73
2018-03-22T03:06:41.595Z,16.40
2018-03-22T03:09:09.966Z,17.53
2018-03-22T03:11:38.349Z,12.77
2018-03-22T03:14:06.824Z,13.10
2018-03-22T03:16:37.454Z,14.40
2018-03-22T03:19:06.422Z,14.37
2018-03-22T03:21:35.505Z,19.47
2018-03-22T03:24:03.907Z,15.07
2018-03-22T03:26:32.442Z,13.10
2018-03-22T03:29:01.546Z,16.13
2018-03-22T03:31:29.888Z,15.63
2018-03-22T03:34:01.113Z,12.90
2018-03-22T03:36:29.610Z,13.10
2018-03-22T03:38:58.125Z,14.30
2018-03-22T03:41:27.353Z,12.90
2018-03-22T03:43:55.962Z,16.30
2018-03-22T03:46:26.080Z,13.17
2018-03-22T03:48:56.043Z,16.03
2018-03-22T03:51:24.469Z,13.63
2018-03-22T03:53:54.574Z,14.30
2018-03-22T03:56:22.967Z,17.70
2018-03-22T03:58:52.081Z,13.63
2018-03-22T04:01:20.506Z,13.87
2018-03-22T04:03:51.658Z,14.50
2018-03-22T04:06:20.748Z,18.17
2018-03-22T04:08:49.896Z,12.93
2018-03-22T04:11:18.234Z,15.87
2018-03-22T04:13:46.615Z,15.10
2018-03-22T04:16:15.207Z,16.13
2018-03-22T04:18:44.711Z,18.70
2018-03-22T04:21:13.316Z,20.53
2018-03-22T04:23:41.901Z,17.03
2018-03-22T04:26:12.164Z,22.60
2018-03-22T04:28:41.426Z,17.10
2018-03-22T04:31:13.854Z,15.17
2018-03-22T04:33:42.392Z,20.33
2018-03-22T04:36:11.271Z,18.23
2018-03-22T04:38:39.647Z,16.37
2018-03-22T04:41:08.733Z,16.20
2018-03-22T04:43:37.272Z,17.40
2018-03-22T04:46:05.772Z,15.50
2018-03-22T04:48:34.306Z,17.10
2018-03-22T04:51:05.478Z,16.57
2018-03-22T04:53:34.117Z,25.00
2018-03-22T04:56:02.612Z,18.73
2018-03-22T04:58:31.206Z,18.00
2018-03-22T05:00:59.680Z,15.20
2018-03-22T05:03:28.458Z,17.07
2018-03-22T05:05:57.028Z,15.13
2018-03-22T05:08:27.604Z,18.70
2018-03-22T05:10:58.822Z,23.73
2018-03-22T05:13:30.290Z,17.00
2018-03-22T05:16:00.603Z,17.27
2018-03-22T05:18:33.217Z,21.07
2018-03-22T05:21:03.359Z,17.53
2018-03-22T05:23:33.476Z,25.70
2018-03-22T05:26:01.966Z,15.87
2018-03-22T05:28:31.283Z,21.80
2018-03-22T05:31:00.412Z,16.33
2018-03-22T05:33:28.896Z,19.93
2018-03-22T05:35:59.399Z,16.87
2018-03-22T05:38:32.815Z,16.10
2018-03-22T05:41:03.020Z,18.50
2018-03-22T05:43:32.745Z,17.43
2018-03-22T05:46:02.970Z,14.60
2018-03-22T05:48:31.501Z,16.30
2018-03-22T05:51:01.677Z,18.80
2018-03-22T05:53:30.089Z,24.23
2018-03-22T05:55:58.607Z,22.27
2018-03-22T05:58:26.958Z,21.33
2018-03-22T06:00:59.000Z,19.33
2018-03-22T06:03:27.629Z,21.47
2018-03-22T06:05:56.018Z,20.73
2018-03-22T06:08:27.520Z,24.33
2018-03-22T06:10:55.955Z,18.73
2018-03-22T06:13:24.423Z,19.70
2018-03-22T06:15:52.809Z,21.60
2018-03-22T06:18:23.025Z,20.93
2018-03-22T06:20:56.417Z,19.83
2018-03-22T06:23:24.895Z,18.43
2018-03-22T06:25:53.557Z,19.90
2018-03-22T06:28:22.068Z,18.53
2018-03-22T06:30:50.603Z,19.97
2018-03-22T06:33:19.083Z,18.47
2018-03-22T06:35:49.239Z,18.00
2018-03-22T06:38:17.670Z,21.43
2018-03-22T06:40:46.168Z,18.03
2018-03-22T06:43:14.549Z,19.60
2018-03-22T06:45:45.121Z,26.37
2018-03-22T06:48:15.247Z,18.33
2018-03-22T06:50:47.179Z,17.50
2018-03-22T06:53:15.608Z,20.70
2018-03-22T06:55:44.190Z,16.80
2018-03-22T06:58:12.621Z,19.30
2018-03-22T07:00:41.003Z,25.43
2018-03-22T07:03:09.322Z,19.33
2018-03-22T07:05:37.677Z,18.00
2018-03-22T07:08:06.931Z,20.00
2018-03-22T07:10:36.867Z,20.30
2018-03-22T07:13:05.213Z,20.00
2018-03-22T07:15:33.523Z,16.60
2018-03-22T07:18:01.940Z,18.50
2018-03-22T07:20:30.419Z,20.50
2018-03-22T07:22:58.819Z,18.37
2018-03-22T07:25:27.273Z,19.10
2018-03-22T07:27:55.612Z,15.63
2018-03-22T07:30:24.172Z,15.30
2018-03-22T07:32:54.265Z,19.53
2018-03-22T07:35:22.807Z,21.20
2018-03-22T07:37:53.361Z,18.17
2018-03-22T07:40:21.776Z,18.13
2018-03-22T07:42:55.825Z,17.60
2018-03-22T07:45:26.299Z,16.17
2018-03-22T07:47:54.791Z,18.73
2018-03-22T07:50:23.101Z,16.67
2018-03-22T07:52:51.545Z,18.43
2018-03-22T07:55:19.968Z,18.67
2018-03-22T07:57:50.384Z,22.17
2018-03-22T08:00:20.913Z,16.53
2018-03-22T08:02:49.334Z,18.30
2018-03-22T08:05:17.781Z,16.53
2018-03-22T08:07:47.890Z,16.63
2018-03-22T08:10:16.271Z,20.20
2018-03-22T08:12:44.657Z,19.33
2018-03-22T08:15:13.068Z,18.70
2018-03-22T08:17:41.613Z,17.57
2018-03-22T08:20:10.217Z,18.37
2018-03-22T08:22:38.601Z,15.23
2018-03-22T08:25:06.941Z,20.67
2018-03-22T08:27:35.330Z,13.03
2018-03-22T08:30:03.871Z,14.83
2018-03-22T08:32:32.321Z,18.03
2018-03-22T08:35:00.709Z,12.87
2018-03-22T08:37:29.025Z,13.00
2018-03-22T08:39:57.460Z,17.97
2018-03-22T08:42:25.840Z,15.10
2018-03-22T08:44:54.270Z,15.20
2018-03-22T08:47:21.941Z,11.70
2018-03-22T08:49:52.264Z,15.10
2018-03-22T08:52:21.834Z,18.30
2018-03-22T08:54:50.327Z,15.60
2018-03-22T08:57:20.736Z,15.07
2018-03-22T08:59:49.803Z,15.93
2018-03-22T09:02:18.271Z,16.23
2018-03-22T09:04:46.576Z,13.10
2018-03-22T09:07:15.712Z,15.47
2018-03-22T09:09:44.070Z,15.47
2018-03-22T09:12:12.574Z,15.70
2018-03-22T09:14:41.139Z,14.90
2018-03-22T09:17:12.286Z,13.93
2018-03-22T09:19:42.780Z,13.13
2018-03-22T09:22:13.524Z,12.10
2018-03-22T09:24:42.050Z,11.67
2018-03-22T09:27:10.339Z,11.20
2018-03-22T09:29:38.648Z,12.10
2018-03-22T09:32:06.960Z,11.90
2018-03-22T09:34:35.258Z,16.40
2018-03-22T09:37:03.620Z,11.77
2018-03-22T09:39:32.049Z,10.83
2018-03-22T09:42:00.365Z,12.10
2018-03-22T09:44:28.686Z,13.47
2018-03-22T09:46:57.092Z,13.63
2018-03-22T09:49:25.636Z,10.77
2018-03-22T09:51:53.991Z,11.00
2018-03-22T09:54:22.331Z,9.50
2018-03-22T09:56:50.839Z,11.10
2018-03-22T09:59:19.281Z,11.03
2018-03-22T10:01:47.829Z,17.50
2018-03-22T10:04:17.136Z,11.10
2018-03-22T10:06:45.566Z,12.73
2018-03-22T10:09:14.104Z,11.23
2018-03-22T10:11:43.507Z,8.93
2018-03-22T10:14:11.882Z,8.10
2018-03-22T10:16:40.982Z,13.93
2018-03-22T10:19:09.326Z,11.67
2018-03-22T10:21:39.225Z,12.03
2018-03-22T10:24:09.909Z,9.60
2018-03-22T10:26:39.999Z,13.03
2018-03-22T10:29:08.445Z,10.60
2018-03-22T10:31:37.907Z,11.70
2018-03-22T10:34:09.117Z,14.40
2018-03-22T10:36:37.588Z,14.70
2018-03-22T10:39:06.015Z,10.30
2018-03-22T10:41:34.612Z,12.50
2018-03-22T10:44:02.882Z,9.60
2018-03-22T10:46:31.206Z,10.90
2018-03-22T10:49:01.387Z,9.03
2018-03-22T10:51:29.765Z,7.63
2018-03-22T10:53:58.335Z,8.50
2018-03-22T10:56:26.657Z,7.43
2018-03-22T10:58:55.661Z,8.23
2018-03-22T11:01:29.752Z,6.47
2018-03-22T11:03:58.423Z,7.53
2018-03-22T11:06:27.566Z,7.37
2018-03-22T11:08:55.906Z,10.73
2018-03-22T11:11:24.258Z,10.63
2018-03-22T11:13:52.575Z,7.87
2018-03-22T11:16:20.931Z,8.07
2018-03-22T11:18:49.320Z,7.10
2018-03-22T11:21:17.684Z,8.90
2018-03-22T11:23:46.025Z,7.30
2018-03-22T11:26:14.408Z,6.87
2018-03-22T11:28:44.577Z,10.00
2018-03-22T11:31:14.547Z,6.23
2018-03-22T11:33:43.019Z,7.30
2018-03-22T11:36:12.044Z,5.60
2018-03-22T11:38:40.353Z,5.33
2018-03-22T11:41:08.741Z,7.70
2018-03-22T11:43:37.054Z,5.97
2018-03-22T11:46:05.391Z,8.90
2018-03-22T11:48:33.847Z,8.83
2018-03-22T11:51:02.121Z,7.17
2018-03-22T11:53:33.388Z,8.03
2018-03-22T11:56:05.669Z,6.10
2018-03-22T11:58:36.506Z,6.50
2018-03-22T12:01:04.970Z,6.90
2018-03-22T12:03:33.316Z,6.37
2018-03-22T12:06:01.627Z,8.00
2018-03-22T12:08:30.118Z,6.10
2018-03-22T12:10:58.469Z,6.40
2018-03-22T12:13:27.802Z,6.33
2018-03-22T12:15:58.967Z,12.50
2018-03-22T12:18:27.312Z,5.57
2018-03-22T12:20:56.725Z,6.37
2018-03-22T12:23:25.035Z,5.53
2018-03-22T12:25:53.385Z,6.10
2018-03-22T12:28:21.808Z,6.13
2018-03-22T12:30:50.121Z,6.00
2018-03-22T12:33:19.563Z,7.40
2018-03-22T12:35:48.634Z,5.87
2018-03-22T12:38:17.000Z,7.93
2018-03-22T12:40:46.123Z,8.20
2018-03-22T12:43:14.604Z,6.70
2018-03-22T12:45:42.922Z,10.57
2018-03-22T12:48:14.067Z,6.40
2018-03-22T12:50:42.458Z,6.90
2018-03-22T12:53:13.406Z,6.17
2018-03-22T12:55:41.793Z,8.43
2018-03-22T12:58:10.145Z,7.30
2018-03-22T13:00:40.294Z,10.03
2018-03-22T13:03:09.904Z,5.93
2018-03-22T13:05:39.961Z,8.60
2018-03-22T13:08:08.744Z,6.50
2018-03-22T13:10:37.195Z,8.50
2018-03-22T13:13:05.591Z,8.73
2018-03-22T13:15:36.685Z,6.63
2018-03-22T13:18:06.683Z,8.50
2018-03-22T13:20:35.064Z,7.13
2018-03-22T13:23:03.495Z,7.20
2018-03-22T13:25:34.529Z,6.90
2018-03-22T13:28:04.240Z,9.33
2018-03-22T13:30:34.151Z,8.77
2018-03-22T13:33:02.574Z,9.77
2018-03-22T13:35:30.991Z,7.27
2018-03-22T13:37:59.371Z,9.10
2018-03-22T13:40:28.591Z,9.17
2018-03-22T13:42:57.687Z,8.67
2018-03-22T13:45:27.797Z,7.80
2018-03-22T13:47:56.157Z,8.77
2018-03-22T13:50:24.702Z,8.50
2018-03-22T13:52:53.759Z,11.90
2018-03-22T13:55:22.288Z,7.40
2018-03-22T13:57:51.357Z,7.17
2018-03-22T14:00:20.990Z,7.43
2018-03-22T14:02:49.365Z,11.07
2018-03-22T14:05:17.722Z,7.77
2018-03-22T14:07:46.048Z,10.03
2018-03-22T14:10:14.350Z,6.60
2018-03-22T14:12:42.995Z,8.43
2018-03-22T14:15:11.341Z,6.07
2018-03-22T14:17:39.750Z,6.40
2018-03-22T14:20:11.423Z,7.80
2018-03-22T14:22:40.927Z,11.20
2018-03-22T14:25:09.248Z,6.63
2018-03-22T14:27:37.528Z,7.13
2018-03-22T14:30:08.695Z,8.40
2018-03-22T14:32:38.690Z,7.07
2018-03-22T14:35:07.157Z,9.67
2018-03-22T14:37:35.619Z,9.13
2018-03-22T14:40:05.866Z,7.40
2018-03-22T14:42:36.024Z,6.23
2018-03-22T14:45:04.515Z,6.23
2018-03-22T14:47:32.837Z,11.60
2018-03-22T14:50:01.282Z,8.97
2018-03-22T14:52:29.674Z,7.50
2018-03-22T14:54:59.207Z,7.23
2018-03-22T14:57:27.543Z,7.57
2018-03-22T14:59:57.605Z,7.43
2018-03-22T15:02:26.077Z,6.40
2018-03-22T15:04:54.405Z,8.40
2018-03-22T15:07:22.764Z,7.73
2018-03-22T15:09:52.116Z,9.63
2018-03-22T15:12:20.446Z,7.00
2018-03-22T15:14:48.776Z,8.07
2018-03-22T15:17:19.744Z,32.40
2018-03-22T15:19:48.248Z,5.07
2018-03-22T15:22:18.242Z,7.47
2018-03-22T15:24:46.615Z,5.20
2018-03-22T15:27:14.937Z,8.87
2018-03-22T15:29:45.370Z,6.70
2018-03-22T15:32:13.727Z,7.70
2018-03-22T15:34:43.696Z,7.57
2018-03-22T15:46:57.190Z,8.90
2018-03-22T15:49:25.642Z,10.13
2018-03-22T15:51:53.952Z,8.37
2018-03-22T15:54:23.283Z,8.43
2018-03-22T15:56:51.628Z,5.80
2018-03-22T15:59:20.717Z,7.20
2018-03-22T16:01:49.059Z,6.30
2018-03-22T16:04:19.896Z,7.27
2018-03-22T16:06:48.316Z,8.13
2018-03-22T16:09:18.347Z,8.00
2018-03-22T16:11:46.715Z,8.07
2018-03-22T16:14:15.302Z,10.90
2018-03-22T16:16:43.657Z,16.13
2018-03-22T16:19:11.997Z,11.10
2018-03-22T16:21:40.368Z,8.63
2018-03-22T16:24:08.850Z,7.83
2018-03-22T16:26:40.080Z,8.30
2018-03-22T16:29:10.192Z,7.20
2018-03-22T16:31:39.597Z,8.13
2018-03-22T16:34:08.162Z,15.03
2018-03-22T16:36:36.593Z,7.77
2018-03-22T16:39:05.082Z,12.37
2018-03-22T16:41:33.759Z,10.83
2018-03-22T16:44:02.216Z,8.73
2018-03-22T16:46:31.638Z,8.03
2018-03-22T16:49:01.023Z,12.90
2018-03-22T16:51:31.050Z,10.57
2018-03-22T16:53:59.480Z,9.37
2018-03-22T16:56:27.810Z,8.43
2018-03-22T16:58:56.176Z,9.60
2018-03-22T17:01:24.665Z,7.87
2018-03-22T17:03:53.787Z,9.57
2018-03-22T17:06:24.637Z,10.60
2018-03-22T17:08:53.421Z,11.67
2018-03-22T17:11:23.058Z,11.17
2018-03-22T17:13:51.507Z,9.60
2018-03-22T17:16:21.528Z,8.33
2018-03-22T17:18:51.588Z,7.07
2018-03-22T17:21:22.618Z,10.03
2018-03-22T17:23:52.677Z,10.33
2018-03-22T17:26:21.525Z,7.50
2018-03-22T17:28:49.919Z,15.67
2018-03-22T17:31:18.275Z,10.50
2018-03-22T17:33:48.853Z,9.00
2018-03-22T17:36:17.406Z,11.43
2018-03-22T17:38:46.691Z,8.93
2018-03-22T17:41:16.227Z,9.50
2018-03-22T17:43:44.648Z,10.30
2018-03-22T17:46:13.195Z,11.30
2018-03-22T17:48:41.674Z,13.83
2018-03-22T17:51:10.120Z,11.30
2018-03-22T17:53:39.872Z,15.60
2018-03-22T17:56:10.213Z,9.10
2018-03-22T17:58:38.622Z,13.30
2018-03-22T18:01:07.270Z,10.20
2018-03-22T18:03:37.419Z,11.10
2018-03-22T18:06:08.016Z,16.27
2018-03-22T18:08:38.979Z,14.00
2018-03-22T18:11:08.307Z,11.47
2018-03-22T18:13:36.890Z,11.00
2018-03-22T18:16:06.260Z,11.13
2018-03-22T18:18:34.668Z,12.17
2018-03-22T18:21:03.433Z,12.00
2018-03-22T18:23:33.505Z,11.83
2018-03-22T18:26:01.889Z,14.47
2018-03-22T18:28:32.399Z,11.23
2018-03-22T18:31:01.691Z,10.87
2018-03-22T18:33:30.251Z,14.43
2018-03-22T18:35:58.652Z,13.40
2018-03-22T18:38:27.061Z,11.37
2018-03-22T18:40:57.600Z,14.03
2018-03-22T18:43:26.001Z,11.10
2018-03-22T18:45:56.297Z,11.10
2018-03-22T18:48:27.199Z,12.90
2018-03-22T18:50:56.539Z,14.47
2018-03-22T18:53:25.821Z,14.10
2018-03-22T18:55:56.813Z,15.27
2018-03-22T18:58:25.368Z,13.50
2018-03-22T19:00:53.766Z,14.10
2018-03-22T19:03:22.256Z,12.53
2018-03-22T19:05:50.791Z,11.77
2018-03-22T19:08:19.309Z,11.93
2018-03-22T19:10:48.404Z,14.43
2018-03-22T19:13:16.852Z,10.93
2018-03-22T19:15:46.316Z,12.40
2018-03-22T19:18:14.772Z,12.80
2018-03-22T19:20:43.540Z,12.17
2018-03-22T19:23:14.618Z,14.97
2018-03-22T19:25:44.881Z,15.30
2018-03-22T19:28:15.791Z,14.10
2018-03-22T19:30:44.189Z,15.17
2018-03-22T19:33:14.355Z,16.20
2018-03-22T19:35:42.789Z,14.67
2018-03-22T19:38:11.460Z,13.00
2018-03-22T19:40:39.925Z,13.60
2018-03-22T19:43:10.476Z,15.03
2018-03-22T19:45:41.228Z,13.60
2018-03-22T20:01:12.581Z,15.83
2018-03-22T20:03:42.822Z,18.53
2018-03-22T20:06:11.266Z,15.17
2018-03-22T20:08:39.954Z,14.70
2018-03-22T20:11:08.453Z,16.37
2018-03-22T20:13:38.133Z,15.53
2018-03-22T20:16:06.605Z,16.17
2018-03-22T20:18:36.011Z,13.73
2018-03-22T20:21:04.710Z,14.10
2018-03-22T20:23:35.745Z,16.60
2018-03-22T20:26:04.314Z,13.23
2018-03-22T20:28:34.284Z,16.53
2018-03-22T20:31:04.365Z,13.43
2018-03-22T20:33:35.725Z,13.10
2018-03-22T20:36:04.101Z,15.17
2018-03-22T20:38:32.493Z,16.43
2018-03-22T20:41:01.032Z,17.97
2018-03-22T20:43:29.417Z,15.00
2018-03-22T20:45:58.180Z,16.70
2018-03-22T20:48:28.409Z,17.17
2018-03-22T20:50:56.886Z,18.97
2018-03-22T20:53:25.461Z,19.30
2018-03-22T20:55:53.908Z,22.73
2018-03-22T20:58:24.593Z,17.87
2018-03-22T21:00:54.113Z,21.40
2018-03-22T21:03:22.684Z,18.80
2018-03-22T21:05:51.253Z,17.30
2018-03-22T21:08:19.744Z,16.50
2018-03-22T21:10:50.954Z,18.80
2018-03-22T21:13:20.370Z,17.83
2018-03-22T21:15:50.522Z,17.90
2018-03-22T21:18:19.600Z,18.83
2018-03-22T21:20:48.155Z,20.60
2018-03-22T21:23:18.235Z,18.80
2018-03-22T21:25:47.018Z,16.93
2018-03-22T21:28:15.808Z,20.33
2018-03-22T21:30:46.234Z,19.03
2018-03-22T21:33:16.298Z,17.47
2018-03-22T21:35:44.665Z,17.30
2018-03-22T21:38:13.313Z,20.47
2018-03-22T21:40:43.644Z,16.80
2018-03-22T21:43:12.190Z,19.73
2018-03-22T21:45:40.851Z,21.37
2018-03-22T21:48:09.346Z,18.67
2018-03-22T21:50:50.247Z,18.97
2018-03-22T21:53:20.507Z,18.73
2018-03-22T21:55:51.574Z,18.13
2018-03-22T21:58:20.404Z,19.20
2018-03-22T22:00:48.754Z,18.90
2018-03-22T22:03:18.653Z,18.20
2018-03-22T22:05:47.213Z,19.20
2018-03-22T22:08:16.303Z,19.97
2018-03-22T22:10:44.846Z,19.60
2018-03-22T22:13:15.052Z,18.70
2018-03-22T22:15:43.479Z,17.63
2018-03-22T22:18:11.802Z,17.47
2018-03-22T22:20:40.202Z,19.40
2018-03-22T22:23:08.555Z,19.47
2018-03-22T22:25:37.747Z,17.07
2018-03-22T22:28:06.102Z,17.53
2018-03-22T22:30:37.494Z,20.47
2018-03-22T22:33:06.061Z,25.37
2018-03-22T22:35:34.387Z,22.30
2018-03-22T22:38:02.744Z,21.40
2018-03-22T22:40:31.062Z,21.60
2018-03-22T22:42:59.490Z,17.87
2018-03-22T22:45:27.952Z,20.10
2018-03-22T22:47:56.388Z,18.80
2018-03-22T22:50:26.325Z,16.47
2018-03-22T22:52:56.598Z,22.33
2018-03-22T22:55:25.971Z,18.30
2018-03-22T22:57:54.339Z,20.23
2018-03-22T23:00:22.664Z,19.43
2018-03-22T23:02:51.169Z,22.03
2018-03-22T23:05:19.533Z,20.30
2018-03-22T23:07:48.168Z,18.43
2018-03-22T23:10:16.510Z,18.47
2018-03-22T23:12:44.888Z,19.03
2018-03-22T23:15:13.345Z,19.97
2018-03-22T23:17:43.944Z,17.87
2018-03-22T23:20:12.301Z,19.83
2018-03-22T23:22:40.634Z,20.70
2018-03-22T23:25:09.078Z,22.33
2018-03-22T23:27:38.565Z,19.03
2018-03-22T23:30:08.707Z,20.97
2018-03-22T23:32:37.221Z,20.03
2018-03-22T23:35:05.727Z,21.07
2018-03-22T23:37:34.142Z,20.73
2018-03-22T23:40:02.592Z,20.60
2018-03-22T23:42:30.934Z,21.83
2018-03-22T23:44:59.225Z,23.20
2018-03-22T23:47:27.550Z,19.53
2018-03-22T23:49:55.870Z,20.70
2018-03-22T23:52:24.239Z,20.90
2018-03-22T23:54:52.517Z,21.47
2018-03-22T23:57:20.873Z,21.70
2018-03-22T23:59:49.160Z,19.40
